Sara Borchard — V2BY8 — position and weather

sailwx.info

Track history (hours):
 
Tides and Currents Weather Stations Pressure Air Temp Water Temp Dewpoint Dewpoint Depression Visibility Wind Speed Wind Dir Waves Ship Positions

Sara Borchard

Last reported at 2015-Jul-31 18:16 UTC. Time now 2015-Jul-31 21:27 UTC.
Position N 32°34' E 025°56'.

Length 134 m; draft 6.9 m.

Type: Cargo ship. MMSI: 304962000.

Date/timePositionNaut miles runAvg speedWind from/ knotsBaromVisibWave heightAir tempDewpointWater temp
2015-Jul-31 18:16N 32°34' E 025°56'4615.9
2015-Jul-31 15:22N 32°16' E 026°46'1816.0
2015-Jul-31 14:15N 32°09' E 027°06'146 4.8
2015-Jul-30 08:05N 31°12' E 029°43'26 4.4
2015-Jul-30 02:09N 31°29' E 030°06'814.2
2015-Jul-30 01:33N 31°35' E 030°13'1413.9
2015-Jul-30 00:33N 31°46' E 030°23'1414.0
2015-Jul-29 23:33N 31°58' E 030°32'1413.9
2015-Jul-29 22:33N 31°59' E 030°48'1413.9
2015-Jul-29 21:33N 31°60' E 031°05'1413.9
2015-Jul-29 20:33N 32°00' E 031°21'1413.8
2015-Jul-29 19:33N 32°01' E 031°37'1413.8
2015-Jul-29 18:33N 32°01' E 031°53'1414.0
2015-Jul-29 17:33N 32°01' E 032°10'1413.9
2015-Jul-29 16:32N 32°00' E 032°27'7 7.3
2015-Jul-29 15:33N 31°60' E 032°35'0 0.5
2015-Jul-29 14:33N 32°00' E 032°35'7 7.3
2015-Jul-29 13:33N 31°59' E 032°43'1413.6
2015-Jul-29 12:33N 31°59' E 032°59'1313.0
2015-Jul-29 11:33N 31°57' E 033°14'1313.0
2015-Jul-29 10:33N 31°57' E 033°30'1313.4
2015-Jul-29 09:33N 31°56' E 033°45'1413.8
2015-Jul-29 08:34N 31°54' E 034°02'1313.4
2015-Jul-29 07:33N 31°53' E 034°17'18 1.3
2015-Jul-28 17:22N 31°50' E 034°39'3 1.4
2015-Jul-28 15:24N 31°50' E 034°35'22 2.1
2015-Jul-28 04:32N 32°12' E 034°37'1414.7
2015-Jul-28 03:34N 32°26' E 034°42'1414.0
2015-Jul-28 02:33N 32°40' E 034°46'1413.9
2015-Jul-28 01:33N 32°53' E 034°51'9 8.2
2015-Jul-28 00:30N 32°49' E 035°01'0 0.0
2015-Jul-27 20:19N 32°49' E 035°01'2 2.1
2015-Jul-27 19:33N 32°51' E 035°01'1916.5
2015-Jul-27 18:25N 32°55' E 034°39'1416.5
2015-Jul-27 17:33N 32°58' E 034°22'1717.1
2015-Jul-27 16:33N 33°01' E 034°02'1716.9
2015-Jul-27 15:33N 33°15' E 033°52'1717.4
2015-Jul-27 14:33N 33°31' E 033°43'1817.4
2015-Jul-27 13:33N 33°47' E 033°34'1717.3
2015-Jul-27 12:33N 34°02' E 033°25'1716.9
2015-Jul-27 11:33N 34°18' E 033°16'1716.7
2015-Jul-27 10:33N 34°33' E 033°07'8 8.1
2015-Jul-27 09:33N 34°39' E 033°01'0 0.0
2015-Jul-27 08:32N 34°39' E 033°01'0 0.0
2015-Jul-27 07:32N 34°39' E 033°01'0 0.0
2015-Jul-27 06:31N 34°39' E 033°01'0 0.0
2015-Jul-27 05:31N 34°39' E 033°01'0 0.0
2015-Jul-27 04:31N 34°39' E 033°01'1 1.0
2015-Jul-27 03:33N 34°39' E 033°02'2 1.8
2015-Jul-27 02:32N 34°40' E 033°04'0 0.0
2015-Jul-27 01:32N 34°40' E 033°04'0 0.0
2015-Jul-27 00:28N 34°40' E 033°04'0 0.0
2015-Jul-26 23:25N 34°40' E 033°04'0 0.1
2015-Jul-26 22:33N 34°40' E 033°04'1110.8
2015-Jul-26 21:33N 34°31' E 032°57'1717.4
2015-Jul-26 20:33N 34°33' E 032°36'1817.2
2015-Jul-26 19:32N 34°36' E 032°15'1717.3
2015-Jul-26 18:33N 34°39' E 031°54'1717.5
2015-Jul-26 17:33N 34°41' E 031°33'19217.4
2015-Jul-26 06:33N 35°09' E 027°42'1716.8
2015-Jul-26 05:33N 35°11' E 027°22'1716.5
2015-Jul-26 04:33N 35°14' E 027°02'1717.2
2015-Jul-26 03:33N 35°20' E 026°42'7817.8
2015-Jul-25 23:10N 35°36' E 025°08'1017.3
2015-Jul-25 22:34N 35°37' E 024°55'1817.6
2015-Jul-25 21:33N 35°40' E 024°34'1817.6
2015-Jul-25 20:33N 35°43' E 024°12'1717.6
2015-Jul-25 19:33N 35°45' E 023°51'2217.6
2015-Jul-25 18:17N 35°46' E 023°23'36916.9
2015-Jul-24 20:26N 37°44' E 016°07'1516.8
2015-Jul-24 19:33N 37°50' E 015°49'1615.9
2015-Jul-24 18:34N 38°01' E 015°35'1514.8
2015-Jul-24 17:33N 38°16' E 015°40'1615.8
2015-Jul-24 16:33N 38°28' E 015°27'1716.9
2015-Jul-24 15:33N 38°40' E 015°12'1716.6
2015-Jul-24 14:33N 38°51' E 014°56'15616.5
2015-Jul-24 05:07N 40°36' E 012°26'2717.3
2015-Jul-24 03:32N 40°55' E 011°60'1717.2
2015-Jul-24 02:33N 41°06' E 011°43'2217.1
2015-Jul-24 01:14N 41°21' E 011°20'1217.1
2015-Jul-24 00:33N 41°29' E 011°09'1717.2
2015-Jul-23 23:33N 41°40' E 010°52'1717.2
2015-Jul-23 22:32N 41°52' E 010°35'1917.0
2015-Jul-23 21:25N 42°05' E 010°16'1617.1
2015-Jul-23 20:30N 42°16' E 010°01'1716.9
2015-Jul-23 19:30N 42°31' E 009°51'1617.1
2015-Jul-23 18:33N 42°47' E 009°45'1717.2
2015-Jul-23 17:34N 43°03' E 009°38'1717.1
2015-Jul-23 16:33N 43°20' E 009°31'1717.1
2015-Jul-23 15:34N 43°36' E 009°24'1716.6
2015-Jul-23 14:34N 43°51' E 009°16'1 0.8
2015-Jul-23 13:34N 43°52' E 009°15'0 0.5
2015-Jul-23 12:34N 43°51' E 009°14'1010.3
2015-Jul-23 11:33N 44°00' E 009°07'1616.3
2015-Jul-23 10:33N 44°16' E 008°59'9 9.3
2015-Jul-23 09:32N 44°24' E 008°54'0 0.0
2015-Jul-23 08:32N 44°24' E 008°54'0 0.0
2015-Jul-23 07:34N 44°24' E 008°54'0 0.0
2015-Jul-23 06:31N 44°24' E 008°54'0 0.0
2015-Jul-23 05:31N 44°24' E 008°54'0 0.0
2015-Jul-23 04:33N 44°24' E 008°54'0 0.0
2015-Jul-23 03:33N 44°24' E 008°54'6 5.5
2015-Jul-23 02:33N 44°20' E 008°59'1312.7
2015-Jul-23 01:33N 44°10' E 008°47'1312.9
2015-Jul-23 00:33N 44°01' E 008°34'1313.0
2015-Jul-22 23:33N 43°53' E 008°21'1312.8
2015-Jul-22 22:32N 43°43' E 008°08'1212.6
2015-Jul-22 21:33N 43°35' E 007°56'1312.6
2015-Jul-22 20:33N 43°28' E 007°41'1312.7
2015-Jul-22 19:31N 43°20' E 007°27'1212.7
2015-Jul-22 18:33N 43°14' E 007°13'1313.2
2015-Jul-22 17:33N 43°06' E 006°57'1313.3
2015-Jul-22 16:32N 42°59' E 006°42'1413.7
2015-Jul-22 15:33N 42°52' E 006°26'1413.5
2015-Jul-22 14:33N 42°52' E 006°08'1313.0
2015-Jul-22 13:33N 42°55' E 005°50'1313.2
2015-Jul-22 12:33N 43°00' E 005°34'1313.3
2015-Jul-22 11:33N 43°06' E 005°18'1211.8
2015-Jul-22 10:33N 43°16' E 005°09'10 4.3
2015-Jul-22 08:19N 43°21' E 005°20'0 0.0
2015-Jul-22 07:27N 43°21' E 005°20'0 0.0
2015-Jul-22 06:18N 43°21' E 005°20'0 0.0
2015-Jul-22 04:11N 43°21' E 005°20'0 0.2
2015-Jul-22 03:33N 43°21' E 005°20'8 7.8
2015-Jul-22 02:33N 43°16' E 005°11'1313.1
2015-Jul-22 01:33N 43°04' E 005°05'1414.0
2015-Jul-22 00:33N 42°55' E 004°50'1413.6
2015-Jul-21 23:33N 42°44' E 004°39'1313.3
2015-Jul-21 22:33N 42°34' E 004°27'1414.0
2015-Jul-21 21:33N 42°24' E 004°14'1615.5
2015-Jul-21 20:33N 42°13' E 003°59'1515.1
2015-Jul-21 19:33N 42°04' E 003°43'1515.0
2015-Jul-21 18:33N 41°55' E 003°27'  
Track history (hours):
 
Tides and Currents Weather Stations Pressure Air Temp Water Temp Dewpoint Dewpoint Depression Visibility Wind Speed Wind Dir Waves Ship Positions

Sara Borchard

Last reported at 2015-Jul-31 18:16 UTC. Time now 2015-Jul-31 21:27 UTC.
Position N 32°34' E 025°56'.

Length 134 m; draft 6.9 m.

Type: Cargo ship. MMSI: 304962000.

Date/timePositionNaut miles runAvg speedWind from/ knotsBaromVisibWave heightAir tempDewpointWater temp
2015-Jul-31 18:16N 32°34' E 025°56'4615.9
2015-Jul-31 15:22N 32°16' E 026°46'1816.0
2015-Jul-31 14:15N 32°09' E 027°06'146 4.8
2015-Jul-30 08:05N 31°12' E 029°43'26 4.4
2015-Jul-30 02:09N 31°29' E 030°06'814.2
2015-Jul-30 01:33N 31°35' E 030°13'1413.9
2015-Jul-30 00:33N 31°46' E 030°23'1414.0
2015-Jul-29 23:33N 31°58' E 030°32'1413.9
2015-Jul-29 22:33N 31°59' E 030°48'1413.9
2015-Jul-29 21:33N 31°60' E 031°05'1413.9
2015-Jul-29 20:33N 32°00' E 031°21'1413.8
2015-Jul-29 19:33N 32°01' E 031°37'1413.8
2015-Jul-29 18:33N 32°01' E 031°53'1414.0
2015-Jul-29 17:33N 32°01' E 032°10'1413.9
2015-Jul-29 16:32N 32°00' E 032°27'7 7.3
2015-Jul-29 15:33N 31°60' E 032°35'0 0.5
2015-Jul-29 14:33N 32°00' E 032°35'7 7.3
2015-Jul-29 13:33N 31°59' E 032°43'1413.6
2015-Jul-29 12:33N 31°59' E 032°59'1313.0
2015-Jul-29 11:33N 31°57' E 033°14'1313.0
2015-Jul-29 10:33N 31°57' E 033°30'1313.4
2015-Jul-29 09:33N 31°56' E 033°45'1413.8
2015-Jul-29 08:34N 31°54' E 034°02'1313.4
2015-Jul-29 07:33N 31°53' E 034°17'18 1.3
2015-Jul-28 17:22N 31°50' E 034°39'3 1.4
2015-Jul-28 15:24N 31°50' E 034°35'22 2.1
2015-Jul-28 04:32N 32°12' E 034°37'1414.7
2015-Jul-28 03:34N 32°26' E 034°42'1414.0
2015-Jul-28 02:33N 32°40' E 034°46'1413.9
2015-Jul-28 01:33N 32°53' E 034°51'9 8.2
2015-Jul-28 00:30N 32°49' E 035°01'0 0.0
2015-Jul-27 20:19N 32°49' E 035°01'2 2.1
2015-Jul-27 19:33N 32°51' E 035°01'1916.5
2015-Jul-27 18:25N 32°55' E 034°39'1416.5
2015-Jul-27 17:33N 32°58' E 034°22'1717.1
2015-Jul-27 16:33N 33°01' E 034°02'1716.9
2015-Jul-27 15:33N 33°15' E 033°52'1717.4
2015-Jul-27 14:33N 33°31' E 033°43'1817.4
2015-Jul-27 13:33N 33°47' E 033°34'1717.3
2015-Jul-27 12:33N 34°02' E 033°25'1716.9
2015-Jul-27 11:33N 34°18' E 033°16'1716.7
2015-Jul-27 10:33N 34°33' E 033°07'8 8.1
2015-Jul-27 09:33N 34°39' E 033°01'0 0.0
2015-Jul-27 08:32N 34°39' E 033°01'0 0.0
2015-Jul-27 07:32N 34°39' E 033°01'0 0.0
2015-Jul-27 06:31N 34°39' E 033°01'0 0.0
2015-Jul-27 05:31N 34°39' E 033°01'0 0.0
2015-Jul-27 04:31N 34°39' E 033°01'1 1.0
2015-Jul-27 03:33N 34°39' E 033°02'2 1.8
2015-Jul-27 02:32N 34°40' E 033°04'0 0.0
2015-Jul-27 01:32N 34°40' E 033°04'0 0.0
2015-Jul-27 00:28N 34°40' E 033°04'0 0.0
2015-Jul-26 23:25N 34°40' E 033°04'0 0.1
2015-Jul-26 22:33N 34°40' E 033°04'1110.8
2015-Jul-26 21:33N 34°31' E 032°57'1717.4
2015-Jul-26 20:33N 34°33' E 032°36'1817.2
2015-Jul-26 19:32N 34°36' E 032°15'1717.3
2015-Jul-26 18:33N 34°39' E 031°54'1717.5
2015-Jul-26 17:33N 34°41' E 031°33'19217.4
2015-Jul-26 06:33N 35°09' E 027°42'1716.8
2015-Jul-26 05:33N 35°11' E 027°22'1716.5
2015-Jul-26 04:33N 35°14' E 027°02'1717.2
2015-Jul-26 03:33N 35°20' E 026°42'7817.8
2015-Jul-25 23:10N 35°36' E 025°08'1017.3
2015-Jul-25 22:34N 35°37' E 024°55'1817.6
2015-Jul-25 21:33N 35°40' E 024°34'1817.6
2015-Jul-25 20:33N 35°43' E 024°12'1717.6
2015-Jul-25 19:33N 35°45' E 023°51'2217.6
2015-Jul-25 18:17N 35°46' E 023°23'36916.9
2015-Jul-24 20:26N 37°44' E 016°07'1516.8
2015-Jul-24 19:33N 37°50' E 015°49'1615.9
2015-Jul-24 18:34N 38°01' E 015°35'1514.8
2015-Jul-24 17:33N 38°16' E 015°40'1615.8
2015-Jul-24 16:33N 38°28' E 015°27'1716.9
2015-Jul-24 15:33N 38°40' E 015°12'1716.6
2015-Jul-24 14:33N 38°51' E 014°56'15616.5
2015-Jul-24 05:07N 40°36' E 012°26'2717.3
2015-Jul-24 03:32N 40°55' E 011°60'1717.2
2015-Jul-24 02:33N 41°06' E 011°43'2217.1
2015-Jul-24 01:14N 41°21' E 011°20'1217.1
2015-Jul-24 00:33N 41°29' E 011°09'1717.2
2015-Jul-23 23:33N 41°40' E 010°52'1717.2
2015-Jul-23 22:32N 41°52' E 010°35'1917.0
2015-Jul-23 21:25N 42°05' E 010°16'1617.1
2015-Jul-23 20:30N 42°16' E 010°01'1716.9
2015-Jul-23 19:30N 42°31' E 009°51'1617.1
2015-Jul-23 18:33N 42°47' E 009°45'1717.2
2015-Jul-23 17:34N 43°03' E 009°38'1717.1
2015-Jul-23 16:33N 43°20' E 009°31'1717.1
2015-Jul-23 15:34N 43°36' E 009°24'1716.6
2015-Jul-23 14:34N 43°51' E 009°16'1 0.8
2015-Jul-23 13:34N 43°52' E 009°15'0 0.5
2015-Jul-23 12:34N 43°51' E 009°14'1010.3
2015-Jul-23 11:33N 44°00' E 009°07'1616.3
2015-Jul-23 10:33N 44°16' E 008°59'9 9.3
2015-Jul-23 09:32N 44°24' E 008°54'0 0.0
2015-Jul-23 08:32N 44°24' E 008°54'0 0.0
2015-Jul-23 07:34N 44°24' E 008°54'0 0.0
2015-Jul-23 06:31N 44°24' E 008°54'0 0.0
2015-Jul-23 05:31N 44°24' E 008°54'0 0.0
2015-Jul-23 04:33N 44°24' E 008°54'0 0.0
2015-Jul-23 03:33N 44°24' E 008°54'6 5.5
2015-Jul-23 02:33N 44°20' E 008°59'1312.7
2015-Jul-23 01:33N 44°10' E 008°47'1312.9
2015-Jul-23 00:33N 44°01' E 008°34'1313.0
2015-Jul-22 23:33N 43°53' E 008°21'1312.8
2015-Jul-22 22:32N 43°43' E 008°08'1212.6
2015-Jul-22 21:33N 43°35' E 007°56'1312.6
2015-Jul-22 20:33N 43°28' E 007°41'1312.7
2015-Jul-22 19:31N 43°20' E 007°27'1212.7
2015-Jul-22 18:33N 43°14' E 007°13'1313.2
2015-Jul-22 17:33N 43°06' E 006°57'1313.3
2015-Jul-22 16:32N 42°59' E 006°42'1413.7
2015-Jul-22 15:33N 42°52' E 006°26'1413.5
2015-Jul-22 14:33N 42°52' E 006°08'1313.0
2015-Jul-22 13:33N 42°55' E 005°50'1313.2
2015-Jul-22 12:33N 43°00' E 005°34'1313.3
2015-Jul-22 11:33N 43°06' E 005°18'1211.8
2015-Jul-22 10:33N 43°16' E 005°09'10 4.3
2015-Jul-22 08:19N 43°21' E 005°20'0 0.0
2015-Jul-22 07:27N 43°21' E 005°20'0 0.0
2015-Jul-22 06:18N 43°21' E 005°20'0 0.0
2015-Jul-22 04:11N 43°21' E 005°20'0 0.2
2015-Jul-22 03:33N 43°21' E 005°20'8 7.8
2015-Jul-22 02:33N 43°16' E 005°11'1313.1
2015-Jul-22 01:33N 43°04' E 005°05'1414.0
2015-Jul-22 00:33N 42°55' E 004°50'1413.6
2015-Jul-21 23:33N 42°44' E 004°39'1313.3
2015-Jul-21 22:33N 42°34' E 004°27'1414.0
2015-Jul-21 21:33N 42°24' E 004°14'1615.5
2015-Jul-21 20:33N 42°13' E 003°59'1515.1
2015-Jul-21 19:33N 42°04' E 003°43'1515.0
2015-Jul-21 18:33N 41°55' E 003°27'  

Dump ship's entire track history